sensor_id;sensor_type;location;lat;lon;timestamp;P1;durP1;ratioP1;P2;durP2;ratioP2
78740;SDS011;68062;48.726;9.370;2024-02-14T00:01:34;12.87;;;8.27;;
78740;SDS011;68062;48.726;9.370;2024-02-14T00:04:03;11.60;;;8.30;;
78740;SDS011;68062;48.726;9.370;2024-02-14T00:06:34;10.33;;;7.50;;
78740;SDS011;68062;48.726;9.370;2024-02-14T00:09:03;8.47;;;7.90;;
78740;SDS011;68062;48.726;9.370;2024-02-14T00:11:30;17.47;;;8.57;;
78740;SDS011;68062;48.726;9.370;2024-02-14T00:13:59;12.30;;;8.80;;
78740;SDS011;68062;48.726;9.370;2024-02-14T00:16:27;10.53;;;8.00;;
78740;SDS011;68062;48.726;9.370;2024-02-14T00:18:56;11.17;;;7.87;;
78740;SDS011;68062;48.726;9.370;2024-02-14T00:21:24;12.30;;;8.53;;
78740;SDS011;68062;48.726;9.370;2024-02-14T00:23:52;12.93;;;8.37;;
78740;SDS011;68062;48.726;9.370;2024-02-14T00:26:19;12.50;;;8.43;;
78740;SDS011;68062;48.726;9.370;2024-02-14T00:28:48;11.73;;;9.00;;
78740;SDS011;68062;48.726;9.370;2024-02-14T00:31:17;12.93;;;8.00;;
78740;SDS011;68062;48.726;9.370;2024-02-14T00:33:45;14.70;;;9.97;;
78740;SDS011;68062;48.726;9.370;2024-02-14T00:36:13;15.93;;;9.60;;
78740;SDS011;68062;48.726;9.370;2024-02-14T00:38:41;9.93;;;8.13;;
78740;SDS011;68062;48.726;9.370;2024-02-14T00:41:10;11.10;;;7.40;;
78740;SDS011;68062;48.726;9.370;2024-02-14T00:43:38;14.13;;;7.60;;
78740;SDS011;68062;48.726;9.370;2024-02-14T00:46:05;8.07;;;6.60;;
78740;SDS011;68062;48.726;9.370;2024-02-14T00:48:35;10.43;;;7.10;;
78740;SDS011;68062;48.726;9.370;2024-02-14T00:51:03;8.57;;;6.67;;
78740;SDS011;68062;48.726;9.370;2024-02-14T00:53:31;9.20;;;5.83;;
78740;SDS011;68062;48.726;9.370;2024-02-14T00:55:59;13.40;;;7.17;;
78740;SDS011;68062;48.726;9.370;2024-02-14T00:58:27;11.20;;;7.13;;
78740;SDS011;68062;48.726;9.370;2024-02-14T01:00:55;11.47;;;6.70;;
78740;SDS011;68062;48.726;9.370;2024-02-14T01:03:23;7.97;;;6.20;;
78740;SDS011;68062;48.726;9.370;2024-02-14T01:05:52;11.60;;;6.90;;
78740;SDS011;68062;48.726;9.370;2024-02-14T01:08:20;8.10;;;5.80;;
78740;SDS011;68062;48.726;9.370;2024-02-14T01:10:48;9.70;;;6.20;;
78740;SDS011;68062;48.726;9.370;2024-02-14T01:13:16;9.63;;;7.03;;
78740;SDS011;68062;48.726;9.370;2024-02-14T01:15:44;10.27;;;6.60;;
78740;SDS011;68062;48.726;9.370;2024-02-14T01:18:12;7.33;;;5.90;;
78740;SDS011;68062;48.726;9.370;2024-02-14T01:20:40;8.47;;;6.47;;
78740;SDS011;68062;48.726;9.370;2024-02-14T01:23:09;8.13;;;7.40;;
78740;SDS011;68062;48.726;9.370;2024-02-14T01:25:37;11.60;;;7.80;;
78740;SDS011;68062;48.726;9.370;2024-02-14T01:28:05;12.03;;;7.77;;
78740;SDS011;68062;48.726;9.370;2024-02-14T01:30:35;10.80;;;7.37;;
78740;SDS011;68062;48.726;9.370;2024-02-14T01:33:03;9.40;;;6.80;;
78740;SDS011;68062;48.726;9.370;2024-02-14T01:35:31;10.60;;;7.83;;
78740;SDS011;68062;48.726;9.370;2024-02-14T01:37:59;13.07;;;7.80;;
78740;SDS011;68062;48.726;9.370;2024-02-14T01:40:30;12.23;;;7.93;;
78740;SDS011;68062;48.726;9.370;2024-02-14T01:42:58;14.40;;;8.70;;
78740;SDS011;68062;48.726;9.370;2024-02-14T01:45:27;15.67;;;9.03;;
78740;SDS011;68062;48.726;9.370;2024-02-14T01:47:55;10.50;;;8.33;;
78740;SDS011;68062;48.726;9.370;2024-02-14T01:50:23;10.80;;;7.83;;
78740;SDS011;68062;48.726;9.370;2024-02-14T01:52:55;13.20;;;8.30;;
78740;SDS011;68062;48.726;9.370;2024-02-14T01:55:25;11.63;;;8.87;;
78740;SDS011;68062;48.726;9.370;2024-02-14T01:57:56;15.83;;;9.43;;
78740;SDS011;68062;48.726;9.370;2024-02-14T02:00:24;12.27;;;8.80;;
78740;SDS011;68062;48.726;9.370;2024-02-14T02:02:54;13.23;;;8.20;;
78740;SDS011;68062;48.726;9.370;2024-02-14T02:05:24;9.23;;;7.87;;
78740;SDS011;68062;48.726;9.370;2024-02-14T02:07:52;8.70;;;8.20;;
78740;SDS011;68062;48.726;9.370;2024-02-14T02:10:20;11.63;;;8.20;;
78740;SDS011;68062;48.726;9.370;2024-02-14T02:12:48;14.07;;;8.10;;
78740;SDS011;68062;48.726;9.370;2024-02-14T02:15:18;14.30;;;8.70;;
78740;SDS011;68062;48.726;9.370;2024-02-14T02:17:46;18.63;;;9.70;;
78740;SDS011;68062;48.726;9.370;2024-02-14T02:20:19;17.10;;;9.87;;
78740;SDS011;68062;48.726;9.370;2024-02-14T02:22:48;12.83;;;9.00;;
78740;SDS011;68062;48.726;9.370;2024-02-14T02:25:16;15.87;;;9.90;;
78740;SDS011;68062;48.726;9.370;2024-02-14T02:27:44;13.73;;;9.77;;
78740;SDS011;68062;48.726;9.370;2024-02-14T02:30:12;14.27;;;9.40;;
78740;SDS011;68062;48.726;9.370;2024-02-14T02:32:41;13.97;;;9.33;;
78740;SDS011;68062;48.726;9.370;2024-02-14T02:35:09;13.00;;;9.70;;
78740;SDS011;68062;48.726;9.370;2024-02-14T02:37:37;12.50;;;10.13;;
78740;SDS011;68062;48.726;9.370;2024-02-14T02:40:07;14.20;;;9.37;;
78740;SDS011;68062;48.726;9.370;2024-02-14T02:42:37;13.80;;;8.70;;
78740;SDS011;68062;48.726;9.370;2024-02-14T02:45:05;17.03;;;9.87;;
78740;SDS011;68062;48.726;9.370;2024-02-14T02:47:33;14.00;;;9.43;;
78740;SDS011;68062;48.726;9.370;2024-02-14T02:50:01;28.43;;;9.60;;
78740;SDS011;68062;48.726;9.370;2024-02-14T02:52:29;14.00;;;9.30;;
78740;SDS011;68062;48.726;9.370;2024-02-14T02:54:57;15.70;;;9.07;;
78740;SDS011;68062;48.726;9.370;2024-02-14T02:57:28;13.70;;;9.23;;
78740;SDS011;68062;48.726;9.370;2024-02-14T02:59:58;13.30;;;8.40;;
78740;SDS011;68062;48.726;9.370;2024-02-14T03:02:26;13.77;;;9.17;;
78740;SDS011;68062;48.726;9.370;2024-02-14T03:04:54;18.53;;;9.50;;
78740;SDS011;68062;48.726;9.370;2024-02-14T03:07:22;13.07;;;9.70;;
78740;SDS011;68062;48.726;9.370;2024-02-14T03:09:50;16.70;;;10.23;;
78740;SDS011;68062;48.726;9.370;2024-02-14T03:12:17;13.80;;;9.57;;
78740;SDS011;68062;48.726;9.370;2024-02-14T03:14:48;15.03;;;9.53;;
78740;SDS011;68062;48.726;9.370;2024-02-14T03:17:16;16.50;;;9.10;;
78740;SDS011;68062;48.726;9.370;2024-02-14T03:19:44;14.33;;;9.73;;
78740;SDS011;68062;48.726;9.370;2024-02-14T03:22:11;12.00;;;9.37;;
78740;SDS011;68062;48.726;9.370;2024-02-14T03:24:39;11.70;;;9.40;;
78740;SDS011;68062;48.726;9.370;2024-02-14T03:27:10;14.30;;;9.83;;
78740;SDS011;68062;48.726;9.370;2024-02-14T03:29:38;12.23;;;8.60;;
78740;SDS011;68062;48.726;9.370;2024-02-14T03:32:08;12.43;;;9.73;;
78740;SDS011;68062;48.726;9.370;2024-02-14T03:34:35;13.67;;;9.70;;
78740;SDS011;68062;48.726;9.370;2024-02-14T03:37:03;13.33;;;9.10;;
78740;SDS011;68062;48.726;9.370;2024-02-14T03:39:33;18.53;;;9.97;;
78740;SDS011;68062;48.726;9.370;2024-02-14T03:42:01;11.70;;;9.17;;
78740;SDS011;68062;48.726;9.370;2024-02-14T03:44:34;14.07;;;9.43;;
78740;SDS011;68062;48.726;9.370;2024-02-14T03:47:03;10.53;;;7.90;;
78740;SDS011;68062;48.726;9.370;2024-02-14T03:49:33;10.90;;;8.20;;
78740;SDS011;68062;48.726;9.370;2024-02-14T03:52:01;12.80;;;9.03;;
78740;SDS011;68062;48.726;9.370;2024-02-14T03:54:35;12.33;;;9.07;;
78740;SDS011;68062;48.726;9.370;2024-02-14T03:57:03;10.43;;;8.10;;
78740;SDS011;68062;48.726;9.370;2024-02-14T03:59:37;10.93;;;8.60;;
78740;SDS011;68062;48.726;9.370;2024-02-14T04:02:06;13.43;;;9.30;;
78740;SDS011;68062;48.726;9.370;2024-02-14T04:04:37;11.83;;;9.40;;
78740;SDS011;68062;48.726;9.370;2024-02-14T04:07:06;12.63;;;8.47;;
78740;SDS011;68062;48.726;9.370;2024-02-14T04:09:34;13.33;;;9.77;;
78740;SDS011;68062;48.726;9.370;2024-02-14T04:12:03;10.47;;;8.80;;
78740;SDS011;68062;48.726;9.370;2024-02-14T04:14:32;13.20;;;9.50;;
78740;SDS011;68062;48.726;9.370;2024-02-14T04:17:00;14.03;;;8.37;;
78740;SDS011;68062;48.726;9.370;2024-02-14T04:19:28;10.10;;;8.30;;
78740;SDS011;68062;48.726;9.370;2024-02-14T04:21:58;9.67;;;8.10;;
78740;SDS011;68062;48.726;9.370;2024-02-14T04:24:26;8.50;;;7.60;;
78740;SDS011;68062;48.726;9.370;2024-02-14T04:26:53;10.50;;;9.00;;
78740;SDS011;68062;48.726;9.370;2024-02-14T04:29:23;9.57;;;8.40;;
78740;SDS011;68062;48.726;9.370;2024-02-14T04:31:51;12.03;;;8.50;;
78740;SDS011;68062;48.726;9.370;2024-02-14T04:34:19;9.90;;;8.33;;
78740;SDS011;68062;48.726;9.370;2024-02-14T04:36:47;13.00;;;8.90;;
78740;SDS011;68062;48.726;9.370;2024-02-14T04:39:17;11.00;;;8.00;;
78740;SDS011;68062;48.726;9.370;2024-02-14T04:41:44;10.43;;;9.00;;
78740;SDS011;68062;48.726;9.370;2024-02-14T04:44:26;12.37;;;8.40;;
78740;SDS011;68062;48.726;9.370;2024-02-14T04:46:54;13.47;;;9.07;;
78740;SDS011;68062;48.726;9.370;2024-02-14T04:49:22;10.50;;;8.20;;
78740;SDS011;68062;48.726;9.370;2024-02-14T04:51:51;10.20;;;8.43;;
78740;SDS011;68062;48.726;9.370;2024-02-14T04:54:20;13.53;;;8.00;;
78740;SDS011;68062;48.726;9.370;2024-02-14T04:56:48;11.00;;;8.50;;
78740;SDS011;68062;48.726;9.370;2024-02-14T04:59:21;8.90;;;8.40;;
78740;SDS011;68062;48.726;9.370;2024-02-14T05:01:49;8.17;;;7.77;;
78740;SDS011;68062;48.726;9.370;2024-02-14T05:04:18;8.73;;;7.83;;
78740;SDS011;68062;48.726;9.370;2024-02-14T05:06:47;10.23;;;7.90;;
78740;SDS011;68062;48.726;9.370;2024-02-14T05:09:16;10.77;;;6.97;;
78740;SDS011;68062;48.726;9.370;2024-02-14T05:11:45;11.10;;;7.70;;
78740;SDS011;68062;48.726;9.370;2024-02-14T05:14:13;9.50;;;7.30;;
78740;SDS011;68062;48.726;9.370;2024-02-14T05:16:42;10.40;;;7.13;;
78740;SDS011;68062;48.726;9.370;2024-02-14T05:19:10;8.67;;;7.30;;
78740;SDS011;68062;48.726;9.370;2024-02-14T05:21:38;9.03;;;7.80;;
78740;SDS011;68062;48.726;9.370;2024-02-14T05:24:06;16.90;;;7.77;;
78740;SDS011;68062;48.726;9.370;2024-02-14T05:26:34;9.67;;;7.33;;
78740;SDS011;68062;48.726;9.370;2024-02-14T05:29:03;11.70;;;8.13;;
78740;SDS011;68062;48.726;9.370;2024-02-14T05:31:42;9.90;;;7.70;;
78740;SDS011;68062;48.726;9.370;2024-02-14T05:34:11;14.30;;;7.47;;
78740;SDS011;68062;48.726;9.370;2024-02-14T05:36:39;9.17;;;8.10;;
78740;SDS011;68062;48.726;9.370;2024-02-14T05:39:09;11.60;;;8.00;;
78740;SDS011;68062;48.726;9.370;2024-02-14T05:41:37;11.07;;;8.50;;
78740;SDS011;68062;48.726;9.370;2024-02-14T05:44:06;11.13;;;8.30;;
78740;SDS011;68062;48.726;9.370;2024-02-14T05:46:34;12.27;;;8.00;;
78740;SDS011;68062;48.726;9.370;2024-02-14T05:49:02;10.43;;;7.97;;
78740;SDS011;68062;48.726;9.370;2024-02-14T05:51:30;10.50;;;8.90;;
78740;SDS011;68062;48.726;9.370;2024-02-14T05:53:58;9.93;;;8.00;;
78740;SDS011;68062;48.726;9.370;2024-02-14T05:56:27;7.63;;;7.13;;
78740;SDS011;68062;48.726;9.370;2024-02-14T05:58:54;9.63;;;7.70;;
78740;SDS011;68062;48.726;9.370;2024-02-14T06:01:24;9.77;;;7.53;;
78740;SDS011;68062;48.726;9.370;2024-02-14T06:03:52;14.60;;;8.93;;
78740;SDS011;68062;48.726;9.370;2024-02-14T06:06:19;12.53;;;9.20;;
78740;SDS011;68062;48.726;9.370;2024-02-14T06:08:47;10.80;;;8.27;;
78740;SDS011;68062;48.726;9.370;2024-02-14T06:11:15;13.70;;;8.03;;
78740;SDS011;68062;48.726;9.370;2024-02-14T06:13:43;13.93;;;8.80;;
78740;SDS011;68062;48.726;9.370;2024-02-14T06:16:11;10.03;;;7.90;;
78740;SDS011;68062;48.726;9.370;2024-02-14T06:18:40;9.43;;;8.10;;
78740;SDS011;68062;48.726;9.370;2024-02-14T06:21:08;14.67;;;8.93;;
78740;SDS011;68062;48.726;9.370;2024-02-14T06:23:36;14.47;;;8.40;;
78740;SDS011;68062;48.726;9.370;2024-02-14T06:26:05;12.37;;;8.50;;
78740;SDS011;68062;48.726;9.370;2024-02-14T06:28:33;10.17;;;8.53;;
78740;SDS011;68062;48.726;9.370;2024-02-14T06:31:00;12.47;;;7.73;;
78740;SDS011;68062;48.726;9.370;2024-02-14T06:33:28;12.80;;;8.67;;
78740;SDS011;68062;48.726;9.370;2024-02-14T06:35:58;14.07;;;8.60;;
78740;SDS011;68062;48.726;9.370;2024-02-14T06:38:25;16.87;;;8.97;;
78740;SDS011;68062;48.726;9.370;2024-02-14T06:40:53;8.83;;;8.30;;
78740;SDS011;68062;48.726;9.370;2024-02-14T06:43:21;10.50;;;9.80;;
78740;SDS011;68062;48.726;9.370;2024-02-14T06:45:49;12.07;;;8.73;;
78740;SDS011;68062;48.726;9.370;2024-02-14T06:48:16;13.77;;;8.50;;
78740;SDS011;68062;48.726;9.370;2024-02-14T06:50:48;14.97;;;10.00;;
78740;SDS011;68062;48.726;9.370;2024-02-14T06:53:18;12.03;;;9.63;;
78740;SDS011;68062;48.726;9.370;2024-02-14T06:55:45;12.67;;;9.10;;
78740;SDS011;68062;48.726;9.370;2024-02-14T06:58:13;10.90;;;8.80;;
78740;SDS011;68062;48.726;9.370;2024-02-14T07:00:41;10.83;;;8.80;;
78740;SDS011;68062;48.726;9.370;2024-02-14T07:03:10;15.03;;;9.10;;
78740;SDS011;68062;48.726;9.370;2024-02-14T07:05:38;11.27;;;9.23;;
78740;SDS011;68062;48.726;9.370;2024-02-14T07:08:08;10.20;;;8.97;;
78740;SDS011;68062;48.726;9.370;2024-02-14T07:10:37;11.40;;;8.33;;
78740;SDS011;68062;48.726;9.370;2024-02-14T07:13:05;10.87;;;8.40;;
78740;SDS011;68062;48.726;9.370;2024-02-14T07:15:33;13.17;;;9.67;;
78740;SDS011;68062;48.726;9.370;2024-02-14T07:18:01;11.47;;;8.80;;
78740;SDS011;68062;48.726;9.370;2024-02-14T07:20:30;11.03;;;8.37;;
78740;SDS011;68062;48.726;9.370;2024-02-14T07:22:58;12.07;;;8.10;;
78740;SDS011;68062;48.726;9.370;2024-02-14T07:25:25;10.17;;;9.13;;
78740;SDS011;68062;48.726;9.370;2024-02-14T07:27:54;11.80;;;7.60;;
78740;SDS011;68062;48.726;9.370;2024-02-14T07:30:23;10.33;;;6.90;;
78740;SDS011;68062;48.726;9.370;2024-02-14T07:32:51;12.03;;;7.57;;
78740;SDS011;68062;48.726;9.370;2024-02-14T07:35:19;13.10;;;8.30;;
78740;SDS011;68062;48.726;9.370;2024-02-14T07:37:47;11.37;;;7.97;;
78740;SDS011;68062;48.726;9.370;2024-02-14T07:40:15;9.43;;;8.33;;
78740;SDS011;68062;48.726;9.370;2024-02-14T07:42:44;14.27;;;9.30;;
78740;SDS011;68062;48.726;9.370;2024-02-14T07:45:13;12.80;;;8.63;;
78740;SDS011;68062;48.726;9.370;2024-02-14T07:47:41;11.23;;;8.27;;
78740;SDS011;68062;48.726;9.370;2024-02-14T07:50:09;13.17;;;10.03;;
78740;SDS011;68062;48.726;9.370;2024-02-14T07:52:41;14.53;;;10.23;;
78740;SDS011;68062;48.726;9.370;2024-02-14T07:55:09;14.37;;;9.63;;
78740;SDS011;68062;48.726;9.370;2024-02-14T07:57:38;14.83;;;9.50;;
78740;SDS011;68062;48.726;9.370;2024-02-14T08:00:06;16.10;;;10.47;;
78740;SDS011;68062;48.726;9.370;2024-02-14T08:02:37;14.40;;;9.97;;
78740;SDS011;68062;48.726;9.370;2024-02-14T08:05:06;11.93;;;9.10;;
78740;SDS011;68062;48.726;9.370;2024-02-14T08:07:35;14.50;;;9.70;;
78740;SDS011;68062;48.726;9.370;2024-02-14T08:10:03;16.00;;;9.07;;
78740;SDS011;68062;48.726;9.370;2024-02-14T08:12:32;10.30;;;8.30;;
78740;SDS011;68062;48.726;9.370;2024-02-14T08:14:59;14.13;;;9.13;;
78740;SDS011;68062;48.726;9.370;2024-02-14T08:17:32;10.90;;;8.67;;
78740;SDS011;68062;48.726;9.370;2024-02-14T08:20:03;12.80;;;9.07;;
78740;SDS011;68062;48.726;9.370;2024-02-14T08:22:32;15.50;;;10.00;;
78740;SDS011;68062;48.726;9.370;2024-02-14T08:24:59;13.77;;;9.40;;
78740;SDS011;68062;48.726;9.370;2024-02-14T08:27:27;14.87;;;10.10;;
78740;SDS011;68062;48.726;9.370;2024-02-14T08:29:57;11.67;;;10.10;;
78740;SDS011;68062;48.726;9.370;2024-02-14T08:32:26;14.77;;;10.20;;
78740;SDS011;68062;48.726;9.370;2024-02-14T08:34:53;14.90;;;10.03;;
78740;SDS011;68062;48.726;9.370;2024-02-14T08:37:23;15.77;;;10.43;;
78740;SDS011;68062;48.726;9.370;2024-02-14T08:39:51;11.97;;;9.37;;
78740;SDS011;68062;48.726;9.370;2024-02-14T08:42:19;11.83;;;8.97;;
78740;SDS011;68062;48.726;9.370;2024-02-14T08:44:49;9.27;;;7.70;;
78740;SDS011;68062;48.726;9.370;2024-02-14T08:47:17;12.03;;;9.30;;
78740;SDS011;68062;48.726;9.370;2024-02-14T08:49:45;16.33;;;9.87;;
78740;SDS011;68062;48.726;9.370;2024-02-14T08:52:14;10.17;;;8.70;;
78740;SDS011;68062;48.726;9.370;2024-02-14T08:54:44;13.70;;;8.17;;
78740;SDS011;68062;48.726;9.370;2024-02-14T08:57:12;12.20;;;8.80;;
78740;SDS011;68062;48.726;9.370;2024-02-14T08:59:40;11.67;;;7.90;;
78740;SDS011;68062;48.726;9.370;2024-02-14T09:02:14;10.20;;;8.80;;
78740;SDS011;68062;48.726;9.370;2024-02-14T09:04:43;11.03;;;8.70;;
78740;SDS011;68062;48.726;9.370;2024-02-14T09:07:11;10.00;;;8.20;;
78740;SDS011;68062;48.726;9.370;2024-02-14T09:09:39;12.03;;;9.50;;
78740;SDS011;68062;48.726;9.370;2024-02-14T09:12:09;10.60;;;8.03;;
78740;SDS011;68062;48.726;9.370;2024-02-14T09:14:37;9.53;;;6.87;;
78740;SDS011;68062;48.726;9.370;2024-02-14T09:17:05;10.40;;;7.17;;
78740;SDS011;68062;48.726;9.370;2024-02-14T09:19:33;10.00;;;7.10;;
78740;SDS011;68062;48.726;9.370;2024-02-14T09:22:00;9.37;;;6.43;;
78740;SDS011;68062;48.726;9.370;2024-02-14T09:24:32;9.07;;;6.60;;
78740;SDS011;68062;48.726;9.370;2024-02-14T09:27:01;13.03;;;7.13;;
78740;SDS011;68062;48.726;9.370;2024-02-14T09:29:33;7.37;;;5.83;;
78740;SDS011;68062;48.726;9.370;2024-02-14T09:32:07;8.63;;;6.00;;
78740;SDS011;68062;48.726;9.370;2024-02-14T09:34:35;9.00;;;6.30;;
78740;SDS011;68062;48.726;9.370;2024-02-14T09:37:03;10.13;;;5.80;;
78740;SDS011;68062;48.726;9.370;2024-02-14T09:39:32;6.60;;;5.80;;
78740;SDS011;68062;48.726;9.370;2024-02-14T09:42:06;7.30;;;5.10;;
78740;SDS011;68062;48.726;9.370;2024-02-14T09:44:42;8.00;;;5.40;;
78740;SDS011;68062;48.726;9.370;2024-02-14T09:47:11;10.10;;;6.30;;
78740;SDS011;68062;48.726;9.370;2024-02-14T09:49:41;6.73;;;5.70;;
78740;SDS011;68062;48.726;9.370;2024-02-14T09:52:10;7.43;;;5.87;;
78740;SDS011;68062;48.726;9.370;2024-02-14T09:54:39;7.60;;;5.60;;
78740;SDS011;68062;48.726;9.370;2024-02-14T09:57:08;7.43;;;5.83;;
78740;SDS011;68062;48.726;9.370;2024-02-14T09:59:39;7.33;;;5.57;;
78740;SDS011;68062;48.726;9.370;2024-02-14T10:02:10;9.03;;;5.90;;
78740;SDS011;68062;48.726;9.370;2024-02-14T10:04:38;10.17;;;6.00;;
78740;SDS011;68062;48.726;9.370;2024-02-14T10:07:07;7.17;;;5.70;;
78740;SDS011;68062;48.726;9.370;2024-02-14T10:09:39;7.07;;;5.60;;
78740;SDS011;68062;48.726;9.370;2024-02-14T10:12:08;6.23;;;5.77;;
78740;SDS011;68062;48.726;9.370;2024-02-14T10:14:36;8.97;;;5.87;;
78740;SDS011;68062;48.726;9.370;2024-02-14T10:17:04;8.90;;;6.20;;
78740;SDS011;68062;48.726;9.370;2024-02-14T10:19:35;7.77;;;5.30;;
78740;SDS011;68062;48.726;9.370;2024-02-14T10:22:03;9.70;;;5.80;;
78740;SDS011;68062;48.726;9.370;2024-02-14T10:24:32;5.67;;;4.53;;
78740;SDS011;68062;48.726;9.370;2024-02-14T10:27:00;7.70;;;5.07;;
78740;SDS011;68062;48.726;9.370;2024-02-14T10:29:28;6.47;;;4.50;;
78740;SDS011;68062;48.726;9.370;2024-02-14T10:31:57;5.57;;;4.40;;
78740;SDS011;68062;48.726;9.370;2024-02-14T10:34:25;7.10;;;4.80;;
78740;SDS011;68062;48.726;9.370;2024-02-14T10:36:56;6.10;;;5.00;;
78740;SDS011;68062;48.726;9.370;2024-02-14T10:39:24;5.80;;;4.90;;
78740;SDS011;68062;48.726;9.370;2024-02-14T10:41:53;5.47;;;4.83;;
78740;SDS011;68062;48.726;9.370;2024-02-14T10:44:21;6.63;;;5.03;;
78740;SDS011;68062;48.726;9.370;2024-02-14T10:46:49;6.10;;;4.60;;
78740;SDS011;68062;48.726;9.370;2024-02-14T10:49:22;6.13;;;5.13;;
78740;SDS011;68062;48.726;9.370;2024-02-14T10:51:57;6.67;;;5.13;;
78740;SDS011;68062;48.726;9.370;2024-02-14T10:54:29;7.53;;;5.07;;
78740;SDS011;68062;48.726;9.370;2024-02-14T10:56:58;6.70;;;5.00;;
78740;SDS011;68062;48.726;9.370;2024-02-14T10:59:30;4.30;;;3.67;;
78740;SDS011;68062;48.726;9.370;2024-02-14T11:01:59;5.60;;;3.70;;
78740;SDS011;68062;48.726;9.370;2024-02-14T11:04:30;5.30;;;2.87;;
78740;SDS011;68062;48.726;9.370;2024-02-14T11:06:59;5.50;;;3.33;;
78740;SDS011;68062;48.726;9.370;2024-02-14T11:09:32;3.87;;;3.13;;
78740;SDS011;68062;48.726;9.370;2024-02-14T11:12:03;5.07;;;3.27;;
78740;SDS011;68062;48.726;9.370;2024-02-14T11:14:34;3.27;;;1.40;;
78740;SDS011;68062;48.726;9.370;2024-02-14T11:17:03;2.47;;;1.77;;
78740;SDS011;68062;48.726;9.370;2024-02-14T11:19:31;1.50;;;1.13;;
78740;SDS011;68062;48.726;9.370;2024-02-14T11:22:13;2.50;;;1.57;;
78740;SDS011;68062;48.726;9.370;2024-02-14T11:24:45;3.33;;;1.70;;
78740;SDS011;68062;48.726;9.370;2024-02-14T11:27:14;1.60;;;1.50;;
78740;SDS011;68062;48.726;9.370;2024-02-14T11:29:59;1.53;;;1.20;;
78740;SDS011;68062;48.726;9.370;2024-02-14T11:32:28;1.90;;;1.87;;
78740;SDS011;68062;48.726;9.370;2024-02-14T11:34:57;2.40;;;1.70;;
78740;SDS011;68062;48.726;9.370;2024-02-14T11:37:29;2.83;;;1.47;;
78740;SDS011;68062;48.726;9.370;2024-02-14T11:39:58;11.13;;;2.23;;
78740;SDS011;68062;48.726;9.370;2024-02-14T11:42:26;1.73;;;1.20;;
78740;SDS011;68062;48.726;9.370;2024-02-14T11:44:54;1.77;;;1.20;;
78740;SDS011;68062;48.726;9.370;2024-02-14T11:47:24;2.80;;;1.30;;
78740;SDS011;68062;48.726;9.370;2024-02-14T11:49:52;1.90;;;1.23;;
78740;SDS011;68062;48.726;9.370;2024-02-14T11:52:20;2.57;;;1.83;;
78740;SDS011;68062;48.726;9.370;2024-02-14T11:54:49;3.63;;;2.10;;
78740;SDS011;68062;48.726;9.370;2024-02-14T11:57:17;1.73;;;1.30;;
78740;SDS011;68062;48.726;9.370;2024-02-14T11:59:48;1.47;;;1.07;;
78740;SDS011;68062;48.726;9.370;2024-02-14T12:02:19;2.57;;;1.33;;
78740;SDS011;68062;48.726;9.370;2024-02-14T12:04:47;2.73;;;0.97;;
78740;SDS011;68062;48.726;9.370;2024-02-14T12:07:17;1.20;;;1.10;;
78740;SDS011;68062;48.726;9.370;2024-02-14T12:09:46;1.70;;;1.20;;
78740;SDS011;68062;48.726;9.370;2024-02-14T12:12:16;2.03;;;1.20;;
78740;SDS011;68062;48.726;9.370;2024-02-14T12:14:44;1.00;;;1.00;;
78740;SDS011;68062;48.726;9.370;2024-02-14T12:17:16;2.77;;;1.60;;
78740;SDS011;68062;48.726;9.370;2024-02-14T12:19:45;1.10;;;1.00;;
78740;SDS011;68062;48.726;9.370;2024-02-14T12:22:13;1.70;;;1.43;;
78740;SDS011;68062;48.726;9.370;2024-02-14T12:24:45;2.93;;;1.00;;
78740;SDS011;68062;48.726;9.370;2024-02-14T12:27:17;3.17;;;1.60;;
78740;SDS011;68062;48.726;9.370;2024-02-14T12:29:46;1.30;;;1.00;;
78740;SDS011;68062;48.726;9.370;2024-02-14T12:32:16;1.33;;;1.00;;
78740;SDS011;68062;48.726;9.370;2024-02-14T12:34:44;2.63;;;1.37;;
78740;SDS011;68062;48.726;9.370;2024-02-14T12:37:12;1.63;;;1.23;;
78740;SDS011;68062;48.726;9.370;2024-02-14T12:39:40;1.80;;;1.23;;
78740;SDS011;68062;48.726;9.370;2024-02-14T12:42:08;0.97;;;0.80;;
78740;SDS011;68062;48.726;9.370;2024-02-14T12:44:37;1.47;;;0.80;;
78740;SDS011;68062;48.726;9.370;2024-02-14T12:47:05;1.23;;;0.90;;
78740;SDS011;68062;48.726;9.370;2024-02-14T12:49:34;1.80;;;1.00;;
78740;SDS011;68062;48.726;9.370;2024-02-14T12:52:02;1.23;;;0.80;;
78740;SDS011;68062;48.726;9.370;2024-02-14T12:54:31;1.30;;;0.80;;
78740;SDS011;68062;48.726;9.370;2024-02-14T12:56:59;1.47;;;0.90;;
78740;SDS011;68062;48.726;9.370;2024-02-14T12:59:27;1.20;;;1.10;;
78740;SDS011;68062;48.726;9.370;2024-02-14T13:01:56;1.67;;;0.83;;
78740;SDS011;68062;48.726;9.370;2024-02-14T13:04:24;0.80;;;0.60;;
78740;SDS011;68062;48.726;9.370;2024-02-14T13:06:52;22.37;;;14.70;;
78740;SDS011;68062;48.726;9.370;2024-02-14T13:09:20;1.90;;;1.23;;
78740;SDS011;68062;48.726;9.370;2024-02-14T13:11:48;7.00;;;5.27;;
78740;SDS011;68062;48.726;9.370;2024-02-14T13:14:16;1.50;;;1.20;;
78740;SDS011;68062;48.726;9.370;2024-02-14T13:16:44;2.30;;;1.83;;
78740;SDS011;68062;48.726;9.370;2024-02-14T13:19:13;3.37;;;1.70;;
78740;SDS011;68062;48.726;9.370;2024-02-14T13:21:45;2.80;;;1.23;;
78740;SDS011;68062;48.726;9.370;2024-02-14T13:24:14;1.97;;;1.40;;
78740;SDS011;68062;48.726;9.370;2024-02-14T13:26:42;1.50;;;1.30;;
78740;SDS011;68062;48.726;9.370;2024-02-14T13:29:10;1.13;;;1.10;;
78740;SDS011;68062;48.726;9.370;2024-02-14T13:31:38;1.00;;;0.80;;
78740;SDS011;68062;48.726;9.370;2024-02-14T13:34:06;1.13;;;0.80;;
78740;SDS011;68062;48.726;9.370;2024-02-14T13:36:36;2.33;;;1.27;;
78740;SDS011;68062;48.726;9.370;2024-02-14T13:39:04;2.70;;;0.97;;
78740;SDS011;68062;48.726;9.370;2024-02-14T13:41:31;0.97;;;0.70;;
78740;SDS011;68062;48.726;9.370;2024-02-14T13:43:59;2.10;;;0.80;;
78740;SDS011;68062;48.726;9.370;2024-02-14T13:46:27;0.87;;;0.70;;
78740;SDS011;68062;48.726;9.370;2024-02-14T13:48:55;1.70;;;0.70;;
78740;SDS011;68062;48.726;9.370;2024-02-14T13:51:23;1.23;;;0.60;;
78740;SDS011;68062;48.726;9.370;2024-02-14T13:53:52;0.70;;;0.50;;
78740;SDS011;68062;48.726;9.370;2024-02-14T13:56:21;1.20;;;0.73;;
78740;SDS011;68062;48.726;9.370;2024-02-14T13:58:51;1.07;;;0.50;;
78740;SDS011;68062;48.726;9.370;2024-02-14T14:01:18;0.80;;;0.60;;
78740;SDS011;68062;48.726;9.370;2024-02-14T14:03:46;0.80;;;0.70;;
78740;SDS011;68062;48.726;9.370;2024-02-14T14:06:16;1.93;;;1.70;;
78740;SDS011;68062;48.726;9.370;2024-02-14T14:08:44;0.90;;;0.80;;
78740;SDS011;68062;48.726;9.370;2024-02-14T14:11:16;1.53;;;0.73;;
78740;SDS011;68062;48.726;9.370;2024-02-14T14:13:44;2.97;;;0.50;;
78740;SDS011;68062;48.726;9.370;2024-02-14T14:16:11;1.50;;;0.60;;
78740;SDS011;68062;48.726;9.370;2024-02-14T14:18:39;0.43;;;0.40;;
78740;SDS011;68062;48.726;9.370;2024-02-14T14:21:07;0.90;;;0.60;;
78740;SDS011;68062;48.726;9.370;2024-02-14T14:23:35;2.43;;;0.60;;
78740;SDS011;68062;48.726;9.370;2024-02-14T14:26:03;0.97;;;0.60;;
78740;SDS011;68062;48.726;9.370;2024-02-14T14:28:34;1.00;;;0.80;;
78740;SDS011;68062;48.726;9.370;2024-02-14T14:31:01;1.03;;;0.60;;
78740;SDS011;68062;48.726;9.370;2024-02-14T14:33:29;1.17;;;0.80;;
78740;SDS011;68062;48.726;9.370;2024-02-14T14:35:57;1.40;;;1.00;;
78740;SDS011;68062;48.726;9.370;2024-02-14T14:38:25;1.27;;;1.20;;
78740;SDS011;68062;48.726;9.370;2024-02-14T14:40:54;3.63;;;1.37;;
78740;SDS011;68062;48.726;9.370;2024-02-14T14:43:22;3.00;;;0.70;;
78740;SDS011;68062;48.726;9.370;2024-02-14T14:45:51;1.97;;;1.00;;
78740;SDS011;68062;48.726;9.370;2024-02-14T14:48:19;2.30;;;1.10;;
78740;SDS011;68062;48.726;9.370;2024-02-14T14:50:49;2.30;;;0.97;;